TimeCDT,TemperatureF,Dew PointF,Humidity,Sea Level PressureIn,VisibilityMPH,Wind Direction,Wind SpeedMPH,Gust SpeedMPH,PrecipitationIn,Events,Conditions,WindDirDegrees,DateUTC
12:15 AM,77.4,66.4,69,29.85,10.0,West,4.6,-,N/A,,Clear,260,2013-07-20 05:15:00
12:35 AM,76.8,66.7,71,29.85,10.0,West,4.6,-,N/A,,Mostly Cloudy,270,2013-07-20 05:35:00
12:55 AM,76.5,67.1,73,29.85,10.0,West,4.6,-,N/A,,Overcast,280,2013-07-20 05:55:00
1:15 AM,76.5,67.1,73,29.84,10.0,West,4.6,-,N/A,,Mostly Cloudy,270,2013-07-20 06:15:00
1:35 AM,76.5,67.1,73,29.85,10.0,WNW,3.5,-,N/A,,Overcast,300,2013-07-20 06:35:00
1:55 AM,76.5,67.1,73,29.85,10.0,NW,5.8,-,N/A,,Overcast,310,2013-07-20 06:55:00
2:15 AM,76.5,66.7,72,29.85,10.0,WNW,4.6,-,N/A,,Mostly Cloudy,300,2013-07-20 07:15:00
2:35 AM,76.5,66.6,71,29.85,10.0,NW,5.8,-,N/A,Thunderstorm,Overcast,310,2013-07-20 07:35:00
2:55 AM,75.4,66.4,73,29.84,10.0,NNW,4.6,-,N/A,,Mostly Cloudy,330,2013-07-20 07:55:00
3:15 AM,73.9,66.7,78,29.84,10.0,NW,6.9,-,N/A,,Scattered Clouds,320,2013-07-20 08:15:00
3:35 AM,72.7,66.7,82,29.85,10.0,WNW,3.5,-,N/A,,Scattered Clouds,290,2013-07-20 08:35:00
3:55 AM,73.4,66.7,80,29.85,10.0,NW,5.8,-,N/A,,Mostly Cloudy,320,2013-07-20 08:55:00
4:15 AM,73.4,67.1,81,29.85,10.0,NW,4.6,-,N/A,,Overcast,310,2013-07-20 09:15:00
4:35 AM,73.2,66.9,81,29.85,10.0,NW,6.9,-,N/A,,Mostly Cloudy,320,2013-07-20 09:35:00
4:55 AM,72.7,66.6,81,29.86,10.0,NNW,6.9,-,N/A,,Mostly Cloudy,330,2013-07-20 09:55:00
5:15 AM,72.3,65.8,80,29.86,10.0,NNW,5.8,-,N/A,,Mostly Cloudy,340,2013-07-20 10:15:00
5:35 AM,71.6,64.6,78,29.86,10.0,North,8.1,-,N/A,,Scattered Clouds,350,2013-07-20 10:35:00
5:55 AM,70.5,64.2,80,29.86,10.0,North,9.2,-,N/A,,Scattered Clouds,350,2013-07-20 10:55:00
6:15 AM,70.0,63.7,80,29.87,10.0,North,6.9,-,N/A,,Clear,350,2013-07-20 11:15:00
6:35 AM,70.0,63.7,80,29.88,10.0,North,9.2,-,N/A,,Clear,350,2013-07-20 11:35:00
6:55 AM,70.7,63.5,78,29.88,10.0,North,8.1,-,N/A,,Clear,350,2013-07-20 11:55:00
7:15 AM,71.6,63.5,76,29.88,10.0,North,6.9,-,N/A,,Clear,360,2013-07-20 12:15:00
7:35 AM,72.7,63.5,73,29.89,10.0,North,4.6,-,N/A,,Clear,10,2013-07-20 12:35:00
7:55 AM,75.2,64.0,68,29.89,10.0,NNE,6.9,-,N/A,,Clear,20,2013-07-20 12:55:00
8:15 AM,75.4,63.1,66,29.89,10.0,NNE,5.8,-,N/A,,Clear,20,2013-07-20 13:15:00
8:35 AM,77.0,63.0,62,29.90,10.0,NE,6.9,-,N/A,,Clear,40,2013-07-20 13:35:00
8:55 AM,77.9,63.1,60,29.91,10.0,North,8.1,-,N/A,,Clear,10,2013-07-20 13:55:00
9:15 AM,78.4,61.7,56,29.91,10.0,NE,8.1,-,N/A,,Clear,40,2013-07-20 14:15:00
9:35 AM,80.2,61.9,53,29.91,10.0,NE,8.1,-,N/A,,Clear,40,2013-07-20 14:35:00
9:55 AM,80.2,61.7,53,29.91,10.0,NNE,6.9,-,N/A,,Clear,30,2013-07-20 14:55:00
10:15 AM,80.8,61.2,51,29.92,10.0,NNE,6.9,-,N/A,,Clear,30,2013-07-20 15:15:00
10:35 AM,81.9,61.5,50,29.93,10.0,North,6.9,-,N/A,,Clear,360,2013-07-20 15:35:00
10:55 AM,82.2,60.3,47,29.92,10.0,North,5.8,-,N/A,,Clear,10,2013-07-20 15:55:00
11:15 AM,82.2,61.2,49,29.93,10.0,North,4.6,-,N/A,,Clear,360,2013-07-20 16:15:00
11:35 AM,82.6,60.3,47,29.93,10.0,North,8.1,-,N/A,,Clear,360,2013-07-20 16:35:00
11:55 AM,82.4,59.0,45,29.93,10.0,North,6.9,-,N/A,,Clear,360,2013-07-20 16:55:00
12:15 PM,82.9,61.2,48,29.92,10.0,NNE,6.9,-,N/A,,Clear,20,2013-07-20 17:15:00
12:35 PM,83.5,59.5,44,29.92,10.0,Calm,Calm,-,N/A,,Clear,0,2013-07-20 17:35:00
12:55 PM,83.5,61.2,47,29.92,10.0,NNW,6.9,-,N/A,,Clear,340,2013-07-20 17:55:00
1:15 PM,83.8,61.3,47,29.92,10.0,NNE,4.6,-,N/A,,Clear,20,2013-07-20 18:15:00
1:35 PM,84.2,60.1,44,29.91,10.0,North,6.9,-,N/A,,Clear,360,2013-07-20 18:35:00
1:55 PM,84.4,61.3,46,29.91,10.0,NNE,8.1,-,N/A,,Clear,30,2013-07-20 18:55:00
2:15 PM,84.6,60.8,45,29.91,10.0,North,12.7,16.1,N/A,,Clear,350,2013-07-20 19:15:00
2:35 PM,85.3,57.2,38,29.90,10.0,NNW,9.2,-,N/A,,Clear,340,2013-07-20 19:35:00
2:55 PM,85.1,59.2,41,29.90,10.0,NNW,6.9,-,N/A,,Clear,340,2013-07-20 19:55:00
3:15 PM,84.9,61.3,45,29.90,10.0,North,5.8,-,N/A,,Clear,360,2013-07-20 20:15:00
3:35 PM,85.3,60.1,42,29.90,10.0,North,5.8,-,N/A,,Clear,10,2013-07-20 20:35:00
3:55 PM,84.4,60.8,45,29.88,10.0,NNW,10.4,-,N/A,,Clear,340,2013-07-20 20:55:00
4:15 PM,85.6,61.0,43,29.88,10.0,NNW,4.6,-,N/A,,Clear,340,2013-07-20 21:15:00
4:35 PM,85.3,61.3,44,29.88,10.0,NNW,6.9,-,N/A,,Clear,330,2013-07-20 21:35:00
4:55 PM,84.9,61.5,45,29.87,10.0,NNE,3.5,-,N/A,,Clear,20,2013-07-20 21:55:00
5:15 PM,85.3,62.1,46,29.87,10.0,NNE,6.9,-,N/A,,Clear,20,2013-07-20 22:15:00
5:35 PM,84.7,62.4,47,29.87,10.0,North,6.9,-,N/A,,Clear,10,2013-07-20 22:35:00
5:55 PM,84.7,62.2,47,29.88,10.0,NNW,4.6,-,N/A,,Clear,340,2013-07-20 22:55:00
6:15 PM,84.4,61.9,47,29.89,10.0,NNW,4.6,-,N/A,,Scattered Clouds,340,2013-07-20 23:15:00
6:35 PM,84.6,62.2,47,29.89,10.0,NNW,3.5,-,N/A,,Scattered Clouds,330,2013-07-20 23:35:00
6:55 PM,84.2,62.2,47,29.89,10.0,Calm,Calm,-,N/A,,Scattered Clouds,0,2013-07-20 23:55:00
7:15 PM,83.5,63.3,50,29.90,10.0,North,4.6,-,N/A,,Scattered Clouds,350,2013-07-21 00:15:00
7:35 PM,82.8,64.2,53,29.91,10.0,North,4.6,-,N/A,,Clear,350,2013-07-21 00:35:00
7:55 PM,81.5,65.7,58,29.91,10.0,Calm,Calm,-,N/A,,Scattered Clouds,0,2013-07-21 00:55:00
8:15 PM,80.2,66.4,63,29.91,10.0,WNW,3.5,-,N/A,,Clear,300,2013-07-21 01:15:00
8:35 PM,80.2,66.2,62,29.92,10.0,NW,3.5,-,N/A,,Clear,310,2013-07-21 01:35:00
8:55 PM,77.9,66.4,68,29.92,10.0,Calm,Calm,-,N/A,,Clear,0,2013-07-21 01:55:00
9:15 PM,77.7,66.6,68,29.93,10.0,Calm,Calm,-,N/A,,Clear,0,2013-07-21 02:15:00
9:35 PM,77.9,66.2,67,29.93,10.0,NNW,4.6,-,N/A,,Scattered Clouds,330,2013-07-21 02:35:00
9:55 PM,76.3,66.2,71,29.92,10.0,NNW,6.9,-,N/A,,Clear,330,2013-07-21 02:55:00
10:15 PM,75.6,65.7,71,29.92,10.0,NNE,6.9,-,N/A,,Clear,20,2013-07-21 03:15:00
10:35 PM,73.4,64.8,74,29.92,10.0,NNE,8.1,-,N/A,,Clear,20,2013-07-21 03:35:00
10:55 PM,72.7,64.0,74,29.92,10.0,North,6.9,-,N/A,,Clear,10,2013-07-21 03:55:00
11:15 PM,71.8,63.7,76,29.93,10.0,East,8.1,-,N/A,,Clear,100,2013-07-21 04:15:00
11:35 PM,71.6,63.9,76,29.94,10.0,East,10.4,-,N/A,,Clear,90,2013-07-21 04:35:00
11:55 PM,70.7,64.4,80,29.94,10.0,East,6.9,-,N/A,,Clear,90,2013-07-21 04:55:00